Time;durP1;ratioP1;P1;durP2;ratioP2;P2;SDS_P1;SDS_P2;PMS_P1;PMS_P2;Temp;Humidity;BMP_temperature;BMP_pressure;BME280_temperature;BME280_humidity;BME280_pressure;Samples;Min_cycle;Max_cycle;Signal;HPM_P1;HPM_P2
2022/07/03 00:02:23;;;;;;;2.77;2.60;;;;;;;-143.84;40.46;45009.09;5070189;28;20502;-77
2022/07/03 00:04:50;;;;;;;2.53;2.33;;;;;;;-143.84;40.60;44980.53;5070297;28;20437;-77
2022/07/03 00:07:17;;;;;;;2.90;2.27;;;;;;;-143.84;41.05;44993.84;5069924;28;20449;-77
2022/07/03 00:09:45;;;;;;;3.10;2.80;;;;;;;-143.84;41.37;45012.88;5069741;28;20436;-77
2022/07/03 00:12:12;;;;;;;4.87;2.80;;;;;;;-143.84;41.37;45016.69;5069986;28;20431;-77
2022/07/03 00:14:39;;;;;;;2.50;2.30;;;;;;;-143.84;41.63;45007.19;5070513;28;20498;-77
2022/07/03 00:17:07;;;;;;;10.97;2.83;;;;;;;-143.84;41.94;45009.09;5069866;28;20574;-77
2022/07/03 00:19:35;;;;;;;2.90;2.70;;;;;;;-143.84;42.13;44997.66;5069920;28;20448;-77
2022/07/03 00:22:05;;;;;;;4.03;2.20;;;;;;;-143.84;42.05;44986.22;5070008;28;20436;-77
2022/07/03 00:24:36;;;;;;;4.33;2.80;;;;;;;-143.84;42.76;44976.72;5069483;28;20448;-77
2022/07/03 00:27:09;;;;;;;3.00;2.60;;;;;;;-143.84;43.80;45020.50;5061887;28;20437;-77
2022/07/03 00:29:39;;;;;;;4.53;2.33;;;;;;;-143.84;44.38;44993.84;5069804;28;20495;-77
2022/07/03 00:32:09;;;;;;;6.30;2.47;;;;;;;-143.84;45.19;44991.94;5071459;28;20440;-77
2022/07/03 00:34:39;;;;;;;4.53;2.70;;;;;;;-143.84;45.41;44999.56;5073427;28;20441;-77
2022/07/03 00:37:07;;;;;;;2.77;2.57;;;;;;;-143.84;46.52;45014.78;5073713;28;20538;-77
2022/07/03 00:39:38;;;;;;;6.90;3.20;;;;;;;-143.84;47.09;45003.38;5073703;28;20456;-77
2022/07/03 00:42:07;;;;;;;4.30;2.90;;;;;;;-143.84;48.33;45022.41;5073456;28;20471;-77
2022/07/03 00:44:38;;;;;;;5.83;4.00;;;;;;;-143.84;49.73;45001.47;5072892;28;20486;-77
2022/07/03 00:47:06;;;;;;;4.07;3.37;;;;;;;-143.84;51.13;44995.75;5073040;28;20445;-77
2022/07/03 00:49:36;;;;;;;5.50;3.50;;;;;;;-143.84;51.77;44990.03;5073619;28;20523;-77
2022/07/03 00:52:06;;;;;;;8.60;3.40;;;;;;;-143.84;52.71;45007.19;5073180;28;20440;-77
2022/07/03 00:54:35;;;;;;;3.87;3.57;;;;;;;-143.84;53.61;45007.19;5072927;28;20441;-77
2022/07/03 00:57:04;;;;;;;4.50;3.87;;;;;;;-143.84;55.49;45022.41;5072909;28;20568;-76
2022/07/03 00:59:31;;;;;;;9.80;3.90;;;;;;;-143.84;56.01;45005.28;5072976;28;20456;-77
2022/07/03 01:02:05;;;;;;;5.63;4.87;;;;;;;-143.84;58.74;44974.81;5073144;28;20429;-77
2022/07/03 01:04:45;;;;;;;8.03;4.80;;;;;;;-143.84;59.86;45010.97;5073110;28;20503;-77
2022/07/03 01:07:26;;;;;;;5.83;4.97;;;;;;;-143.84;59.80;45012.88;5072723;28;20444;-77
2022/07/03 01:10:04;;;;;;;16.60;4.60;;;;;;;-143.84;60.98;44999.56;5073053;28;20436;-76
2022/07/03 01:12:41;;;;;;;8.87;5.87;;;;;;;-143.84;61.84;44991.94;5073025;28;20436;-77
2022/07/03 01:15:12;;;;;;;8.13;5.00;;;;;;;-143.84;63.59;44976.72;5073043;28;20942;-77
2022/07/03 01:17:44;;;;;;;7.43;5.30;;;;;;;-143.84;64.08;45007.19;5072632;28;20488;-77
2022/07/03 01:20:12;;;;;;;6.97;4.90;;;;;;;-143.84;66.99;44980.53;5072647;28;20441;-77
2022/07/03 01:22:45;;;;;;;10.57;5.40;;;;;;;-143.84;66.73;45003.38;5072373;28;21024;-77
2022/07/03 01:25:25;;;;;;;12.43;6.33;;;;;;;-143.84;71.15;45007.19;5072202;28;20484;-77
2022/07/03 01:28:00;;;;;;;13.17;6.40;;;;;;;-143.84;73.24;45030.03;5072926;28;20919;-77
2022/07/03 01:30:30;;;;;;;7.40;6.40;;;;;;;-143.84;74.84;45018.59;5072849;28;20440;-76
2022/07/03 01:33:03;;;;;;;9.00;6.90;;;;;;;-143.84;76.75;45003.38;5073032;28;20514;-76
2022/07/03 01:35:35;;;;;;;8.90;7.40;;;;;;;-143.84;78.42;44995.75;5073169;28;20425;-77
2022/07/03 01:38:06;;;;;;;7.60;6.90;;;;;;;-143.84;79.58;45018.59;5072507;28;20480;-76
2022/07/03 01:40:34;;;;;;;9.13;7.00;;;;;;;-143.84;81.10;45033.84;5073301;28;20473;-76
2022/07/03 01:43:06;;;;;;;8.70;7.80;;;;;;;-143.84;81.90;44997.66;5071564;28;20495;-76
2022/07/03 01:45:36;;;;;;;11.73;7.10;;;;;;;-143.84;82.24;45016.69;5072580;28;20503;-76
2022/07/03 01:48:05;;;;;;;7.87;7.03;;;;;;;-143.84;82.84;45014.78;5067438;28;20442;-76
2022/07/03 01:50:33;;;;;;;8.23;6.33;;;;;;;-143.84;82.95;45007.19;5052105;28;20446;-76
2022/07/03 01:53:03;;;;;;;13.03;7.10;;;;;;;-143.84;83.09;45018.59;5052117;28;20437;-76
2022/07/03 01:55:34;;;;;;;8.30;7.50;;;;;;;-143.84;83.52;45018.59;5052434;28;20453;-76
2022/07/03 01:58:03;;;;;;;10.97;7.40;;;;;;;-143.84;84.00;45022.41;5059605;28;20618;-76
2022/07/03 02:00:31;;;;;;;10.93;7.23;;;;;;;-143.84;84.36;45003.38;5071642;28;20456;-77
2022/07/03 02:03:01;;;;;;;15.13;7.33;;;;;;;-143.84;84.74;45035.75;5071869;28;20440;-76
2022/07/03 02:05:37;;;;;;;10.60;8.10;;;;;;;-143.84;85.25;45007.19;5071458;28;20511;-76
2022/07/03 02:08:20;;;;;;;10.70;9.20;;;;;;;-143.84;85.61;45009.09;5071587;28;20469;-77
2022/07/03 02:10:52;;;;;;;9.90;7.40;;;;;;;-143.84;86.18;44988.13;5071470;28;20437;-77
2022/07/03 02:13:25;;;;;;;11.43;7.93;;;;;;;-143.84;86.15;45007.19;5070727;28;20506;-76
2022/07/03 02:15:53;;;;;;;13.10;8.17;;;;;;;-143.84;85.90;45022.41;5071281;28;20506;-77
2022/07/03 02:18:29;;;;;;;8.73;7.53;;;;;;;-143.84;85.87;45005.28;5070954;28;20480;-77
2022/07/03 02:21:05;;;;;;;9.80;8.30;;;;;;;-143.84;86.76;44990.03;5071014;28;20440;-76
2022/07/03 02:23:33;;;;;;;12.20;8.80;;;;;;;-143.84;87.32;44991.94;5070924;28;20445;-76
2022/07/03 02:26:05;;;;;;;9.30;8.20;;;;;;;-143.84;86.96;45010.97;5070887;28;20490;-76
2022/07/03 02:28:51;;;;;;;11.50;8.93;;;;;;;-143.84;87.60;45007.19;5071011;28;20437;-77
2022/07/03 02:31:22;;;;;;;12.83;9.30;;;;;;;-143.84;87.75;45033.84;5056940;28;20461;-77
2022/07/03 02:33:51;;;;;;;9.87;8.80;;;;;;;-143.84;88.14;44999.56;5068438;28;20503;-77
2022/07/03 02:36:22;;;;;;;22.80;8.60;;;;;;;-143.84;88.19;45010.97;5070773;28;20447;-77
2022/07/03 02:38:55;;;;;;;10.83;9.67;;;;;;;-143.84;88.29;45009.09;5070849;28;20472;-77
2022/07/03 02:41:28;;;;;;;9.53;8.73;;;;;;;-143.84;88.67;45018.59;5070954;28;20448;-77
2022/07/03 02:44:02;;;;;;;19.50;9.47;;;;;;;-143.84;88.93;44988.13;5070721;28;20444;-77
2022/07/03 02:46:51;;;;;;;15.03;9.27;;;;;;;-143.84;88.62;44997.66;5069714;28;20441;-77
2022/07/03 02:49:34;;;;;;;16.50;10.23;;;;;;;-143.84;88.76;45009.09;5067925;28;20514;-77
2022/07/03 02:52:14;;;;;;;12.53;8.80;;;;;;;-143.84;88.81;44991.94;5069006;28;20498;-76
2022/07/03 02:54:46;;;;;;;12.47;9.20;;;;;;;-143.84;88.56;45009.09;5069760;28;20676;-77
2022/07/03 02:57:16;;;;;;;13.60;9.30;;;;;;;-143.84;88.67;44976.72;5069762;28;20839;-77
2022/07/03 02:59:56;;;;;;;10.60;9.50;;;;;;;-143.84;88.87;45007.19;5069722;28;20443;-77
2022/07/03 03:02:55;;;;;;;13.10;8.93;;;;;;;-143.84;89.18;45003.38;5069700;28;20459;-77
2022/07/03 03:05:28;;;;;;;9.37;8.63;;;;;;;-143.84;88.93;45007.19;5054312;28;20540;-77
2022/07/03 03:08:13;;;;;;;11.60;9.70;;;;;;;-143.84;88.91;45043.34;5069967;28;20528;-76
2022/07/03 03:10:41;;;;;;;11.10;8.30;;;;;;;-143.84;89.29;45007.19;5070087;28;20907;-76
2022/07/03 03:13:10;;;;;;;11.17;8.90;;;;;;;-143.84;88.93;45031.94;5070277;28;20445;-77
2022/07/03 03:15:40;;;;;;;12.30;8.80;;;;;;;-143.84;88.62;44982.41;5070484;28;20436;-76
2022/07/03 03:18:12;;;;;;;9.93;9.00;;;;;;;-143.84;88.37;44995.75;5069530;28;20480;-76
2022/07/03 03:20:41;;;;;;;10.07;8.27;;;;;;;-143.84;88.72;44993.84;5069405;28;20453;-76
2022/07/03 03:23:19;;;;;;;10.30;8.23;;;;;;;-143.84;87.86;45016.69;5070005;28;20860;-77
2022/07/03 03:25:46;;;;;;;11.00;9.07;;;;;;;-143.84;88.11;45010.97;5069537;28;20480;-76
2022/07/03 03:28:14;;;;;;;8.20;7.40;;;;;;;-143.84;88.62;44990.03;5069482;28;20452;-76
2022/07/03 03:30:43;;;;;;;9.00;7.80;;;;;;;-143.84;88.21;45010.97;5070311;28;20433;-76
2022/07/03 03:33:10;;;;;;;16.03;8.20;;;;;;;-143.84;88.60;45005.28;5069852;28;20969;-76
2022/07/03 03:35:39;;;;;;;15.33;9.67;;;;;;;-143.84;88.83;44988.13;5069872;28;20889;-76
2022/07/03 03:38:07;;;;;;;12.33;8.57;;;;;;;-143.84;89.09;44984.31;5069434;28;20476;-76
2022/07/03 03:40:35;;;;;;;8.80;7.97;;;;;;;-143.84;89.55;44997.66;5069391;28;20490;-77
2022/07/03 03:43:05;;;;;;;12.57;7.60;;;;;;;-143.84;88.33;44982.41;5068927;28;20961;-76
2022/07/03 03:45:33;;;;;;;12.97;7.63;;;;;;;-143.84;85.65;45007.19;5068831;28;20436;-76
2022/07/03 03:48:02;;;;;;;12.90;7.90;;;;;;;-143.84;83.08;44969.09;5068503;28;20437;-76
2022/07/03 03:50:29;;;;;;;12.63;7.63;;;;;;;-143.84;79.85;44982.41;5068907;28;20452;-77
2022/07/03 03:52:56;;;;;;;11.73;6.00;;;;;;;-143.84;76.66;44955.75;5068962;28;20951;-77
2022/07/03 03:55:23;;;;;;;7.40;5.63;;;;;;;-143.84;74.00;44932.91;5069566;28;20502;-77
2022/07/03 03:57:50;;;;;;;9.93;5.87;;;;;;;-143.84;71.58;44929.09;5068988;28;21009;-77
2022/07/03 04:00:18;;;;;;;7.53;5.10;;;;;;;-143.84;69.45;44915.78;5068828;28;20429;-77
2022/07/03 04:02:45;;;;;;;12.90;5.70;;;;;;;-143.84;66.96;44953.88;5069166;28;20444;-77
2022/07/03 04:05:13;;;;;;;5.77;5.00;;;;;;;-143.84;65.52;44919.59;5069074;28;20449;-77
2022/07/03 04:07:41;;;;;;;5.27;4.87;;;;;;;-143.84;64.32;44929.09;5071745;28;20464;-77
2022/07/03 04:10:08;;;;;;;5.00;4.50;;;;;;;-143.84;62.78;44894.84;5073313;28;20463;-76
2022/07/03 04:12:36;;;;;;;11.03;4.30;;;;;;;-143.84;61.78;44911.97;5074327;28;20460;-77
2022/07/03 04:15:03;;;;;;;8.53;4.87;;;;;;;-143.84;60.34;44904.34;5074718;28;20421;-76
2022/07/03 04:17:31;;;;;;;8.80;4.00;;;;;;;-143.84;58.84;44885.31;5074367;28;21056;-77
2022/07/03 04:19:58;;;;;;;5.33;3.63;;;;;;;-143.84;58.58;44891.03;5073184;28;20954;-77
2022/07/03 04:22:26;;;;;;;8.50;3.30;;;;;;;-143.84;57.73;44887.22;5072150;28;20444;-78
2022/07/03 04:24:54;;;;;;;7.80;3.77;;;;;;;-143.84;56.52;44856.75;5071587;28;20484;-78
2022/07/03 04:27:21;;;;;;;6.13;4.20;;;;;;;-143.84;56.56;44885.31;5062412;28;20438;-77
2022/07/03 04:29:48;;;;;;;4.90;4.20;;;;;;;-143.84;56.50;44892.94;5063320;28;21063;-77
2022/07/03 04:32:15;;;;;;;4.23;3.30;;;;;;;-143.84;54.76;44864.38;5070848;28;20444;-77
2022/07/03 04:34:42;;;;;;;6.60;3.70;;;;;;;-143.84;54.01;44856.75;5051793;28;20515;-77
2022/07/03 04:37:09;;;;;;;9.70;3.53;;;;;;;-143.84;53.92;44889.13;5051451;28;20504;-76
2022/07/03 04:39:38;;;;;;;5.17;3.80;;;;;;;-143.84;53.33;44898.66;5051380;28;20453;-75
2022/07/03 04:42:06;;;;;;;9.77;3.23;;;;;;;-143.84;53.37;44885.31;5051871;28;20442;-76
2022/07/03 04:44:33;;;;;;;9.40;3.27;;;;;;;-143.84;52.40;44852.94;5063070;28;20449;-75
2022/07/03 04:47:00;;;;;;;4.93;3.13;;;;;;;-143.84;51.23;44877.69;5072278;28;20436;-76
2022/07/03 04:49:27;;;;;;;5.50;3.03;;;;;;;-143.84;50.33;44879.59;5071809;28;20437;-75
2022/07/03 04:51:56;;;;;;;7.57;3.33;;;;;;;-143.84;50.26;44871.97;5071986;28;21164;-75
2022/07/03 04:54:23;;;;;;;4.80;2.60;;;;;;;-143.84;47.49;44891.03;5072711;28;20445;-76
2022/07/03 04:56:51;;;;;;;2.97;2.67;;;;;;;-143.84;45.02;44894.84;5068477;28;20510;-77
2022/07/03 04:59:19;;;;;;;5.70;3.60;;;;;;;-143.84;45.77;44849.13;5071902;28;21043;-76
2022/07/03 05:01:47;;;;;;;9.30;2.70;;;;;;;-143.84;45.39;44879.59;5071532;28;20871;-76
2022/07/03 05:04:15;;;;;;;7.13;2.90;;;;;;;-143.84;46.90;44868.19;5071710;28;20465;-78
2022/07/03 05:06:42;;;;;;;12.50;3.27;;;;;;;-143.84;46.77;44849.13;5071543;28;20433;-78
2022/07/03 05:09:09;;;;;;;4.03;2.80;;;;;;;-143.84;46.66;44843.44;5071709;28;20506;-76
2022/07/03 05:11:36;;;;;;;5.67;3.10;;;;;;;-143.84;46.29;44860.56;5071642;28;20498;-76
2022/07/03 05:14:06;;;;;;;5.80;2.93;;;;;;;-143.84;44.05;44860.56;5071252;28;20805;-75
2022/07/03 05:16:33;;;;;;;2.77;2.57;;;;;;;-143.84;42.70;44851.03;5071334;28;21020;-77
2022/07/03 05:19:00;;;;;;;3.03;2.73;;;;;;;-143.84;42.39;44849.13;5070403;28;20480;-77
2022/07/03 05:21:27;;;;;;;5.63;2.70;;;;;;;-143.84;40.74;44870.09;5070978;28;20498;-75
2022/07/03 05:23:55;;;;;;;5.50;2.70;;;;;;;-143.84;42.97;44858.66;5070737;28;20505;-74
2022/07/03 05:26:22;;;;;;;3.10;2.50;;;;;;;-143.84;43.35;44854.84;5070757;28;20487;-75
2022/07/03 05:28:49;;;;;;;3.07;2.80;;;;;;;-143.84;42.11;44856.75;5070753;28;20449;-75
2022/07/03 05:31:17;;;;;;;2.83;2.57;;;;;;;-143.84;41.82;44879.59;5070870;28;20445;-76
2022/07/03 05:33:45;;;;;;;4.20;2.57;;;;;;;-143.84;42.08;44841.53;5082202;28;20447;-76
2022/07/03 05:36:12;;;;;;;4.73;2.17;;;;;;;-143.84;40.60;44852.94;5090794;28;20444;-74
2022/07/03 05:41:23;;;;;;;2.50;2.30;;;;;;;-143.84;40.85;44858.66;5091037;28;20465;-76
2022/07/03 05:43:50;;;;;;;2.97;2.10;;;;;;;-143.84;42.20;44873.88;5090757;28;20493;-76
2022/07/03 05:46:19;;;;;;;5.67;2.40;;;;;;;-143.84;40.92;44854.84;5090737;28;20443;-76
2022/07/03 05:48:46;;;;;;;3.20;2.93;;;;;;;-143.84;41.74;44843.44;5085474;28;20452;-76
2022/07/03 05:51:13;;;;;;;5.87;2.60;;;;;;;-143.84;40.62;44852.94;5070746;28;20806;-76
2022/07/03 05:53:40;;;;;;;4.87;3.13;;;;;;;-143.84;41.62;44866.28;5070798;28;20793;-76
2022/07/03 05:56:08;;;;;;;2.40;2.20;;;;;;;-143.84;39.65;44812.97;5070219;28;20433;-76
2022/07/03 05:58:35;;;;;;;5.80;3.10;;;;;;;-143.84;38.20;44843.44;5070068;28;20503;-76
2022/07/03 06:01:02;;;;;;;5.00;2.20;;;;;;;-143.84;39.32;44811.06;5070173;28;20433;-76
2022/07/03 06:03:30;;;;;;;10.53;2.93;;;;;;;-143.84;37.53;44843.44;5069913;28;20954;-76
2022/07/03 06:05:59;;;;;;;5.57;3.03;;;;;;;-143.84;36.82;44843.44;5070129;28;20453;-77
2022/07/03 06:08:26;;;;;;;2.37;2.17;;;;;;;-143.84;38.86;44835.81;5070296;28;20938;-77
2022/07/03 06:10:54;;;;;;;6.10;2.60;;;;;;;-143.84;39.16;44854.84;5070375;28;20445;-77
2022/07/03 06:13:21;;;;;;;9.90;2.00;;;;;;;-143.84;36.43;44828.19;5069980;28;20448;-76
2022/07/03 06:15:48;;;;;;;2.10;2.00;;;;;;;-143.84;35.99;44856.75;5069960;28;20441;-76
2022/07/03 06:18:15;;;;;;;2.30;2.10;;;;;;;-143.84;36.88;44847.22;5061673;28;20827;-77
2022/07/03 06:20:44;;;;;;;3.50;2.50;;;;;;;-143.84;36.47;44809.16;5070586;28;20514;-76
2022/07/03 06:23:11;;;;;;;4.90;2.50;;;;;;;-143.84;36.86;44833.91;5069967;28;20483;-77
2022/07/03 06:25:38;;;;;;;5.17;2.63;;;;;;;-143.84;36.41;44811.06;5070104;28;20868;-76
2022/07/03 06:28:05;;;;;;;2.40;2.20;;;;;;;-143.84;35.02;44824.38;5062009;28;20445;-76
2022/07/03 06:30:32;;;;;;;8.03;2.57;;;;;;;-143.84;33.76;44797.72;5049414;28;20495;-76
2022/07/03 06:32:59;;;;;;;5.00;2.80;;;;;;;-143.84;35.66;44782.50;5059782;28;20444;-77
2022/07/03 06:35:26;;;;;;;4.87;2.70;;;;;;;-143.84;35.15;44790.13;5069549;28;20518;-76
2022/07/03 06:37:55;;;;;;;3.63;2.20;;;;;;;-143.84;35.47;44826.28;5069479;28;20429;-76
2022/07/03 06:40:22;;;;;;;2.07;1.97;;;;;;;-143.84;36.69;44839.63;5069778;28;20860;-77
2022/07/03 06:42:49;;;;;;;6.50;2.33;;;;;;;-143.84;37.33;44809.16;5069560;28;20506;-76
2022/07/03 06:45:16;;;;;;;4.50;2.73;;;;;;;-143.84;37.30;44822.47;5069573;28;20871;-76
2022/07/03 06:47:43;;;;;;;2.90;2.07;;;;;;;-143.84;35.75;44833.91;5068920;28;20450;-76
2022/07/03 06:50:11;;;;;;;3.10;2.90;;;;;;;-143.84;36.41;44826.28;5069285;28;20865;-76
2022/07/03 06:52:38;;;;;;;9.03;2.30;;;;;;;-143.84;36.21;44778.69;5069241;28;20433;-76
2022/07/03 06:55:08;;;;;;;2.13;2.03;;;;;;;-143.84;37.18;44805.34;5069380;28;20518;-76
2022/07/03 06:57:35;;;;;;;2.60;2.40;;;;;;;-143.84;37.86;44788.22;5069509;28;20483;-76
2022/07/03 07:00:02;;;;;;;3.77;2.67;;;;;;;-143.84;37.85;44792.00;5069176;28;20943;-76
2022/07/03 07:02:29;;;;;;;2.27;2.07;;;;;;;-143.84;37.10;44792.00;5068776;28;20448;-76
2022/07/03 07:04:56;;;;;;;5.60;2.40;;;;;;;-143.84;38.59;44803.44;5069038;28;20440;-76
2022/07/03 07:07:23;;;;;;;2.70;2.50;;;;;;;-143.84;38.38;44841.53;5068082;28;20503;-77
2022/07/03 07:09:50;;;;;;;4.20;2.30;;;;;;;-143.84;37.37;44803.44;5067792;28;20444;-77
2022/07/03 07:12:19;;;;;;;12.00;2.63;;;;;;;-143.84;33.63;44795.81;5068609;28;21015;-77
2022/07/03 07:14:46;;;;;;;3.03;2.50;;;;;;;-143.84;36.87;44826.28;5069715;28;20526;-78
2022/07/03 07:17:13;;;;;;;3.00;2.77;;;;;;;-143.84;35.42;44822.47;5057709;28;20445;-80
2022/07/03 07:19:40;;;;;;;4.13;2.37;;;;;;;-143.84;33.80;44830.09;5051052;28;20469;-79
2022/07/03 07:22:07;;;;;;;10.60;2.40;;;;;;;-143.84;34.31;44809.16;5053846;28;20441;-79
2022/07/03 07:24:35;;;;;;;4.30;2.00;;;;;;;-143.84;35.55;44799.63;5070484;28;20437;-83
2022/07/03 07:27:02;;;;;;;7.70;2.20;;;;;;;-143.84;33.94;44786.31;5070897;28;20457;-77
2022/07/03 07:29:30;;;;;;;2.77;2.50;;;;;;;-143.84;34.64;44839.63;5069779;28;20441;-77
2022/07/03 07:31:58;;;;;;;5.60;2.63;;;;;;;-143.84;36.62;44792.00;5069335;28;20995;-79
2022/07/03 07:34:25;;;;;;;7.13;2.60;;;;;;;-143.84;36.61;44807.25;5068862;28;20506;-77
2022/07/03 07:36:52;;;;;;;4.40;2.30;;;;;;;-143.84;37.43;44833.91;5068638;28;20480;-77
2022/07/03 07:39:19;;;;;;;2.30;2.07;;;;;;;-143.84;35.63;44824.38;5068271;28;20484;-77
2022/07/03 07:41:46;;;;;;;3.20;2.37;;;;;;;-143.84;35.37;44818.66;5071212;28;20506;-77
2022/07/03 07:44:14;;;;;;;2.47;2.30;;;;;;;-143.84;34.75;44837.72;5072612;28;20502;-77
2022/07/03 07:46:42;;;;;;;3.10;2.10;;;;;;;-143.84;36.47;44772.97;5072868;28;20813;-77
2022/07/03 07:49:09;;;;;;;2.67;2.30;;;;;;;-143.84;36.88;44837.72;5072962;28;20484;-77
2022/07/03 07:51:36;;;;;;;3.30;2.27;;;;;;;-143.84;36.48;44801.53;5072996;28;20894;-78
2022/07/03 07:54:03;;;;;;;2.20;2.00;;;;;;;-143.84;37.33;44824.38;5073580;28;20444;-77
2022/07/03 07:56:30;;;;;;;2.37;2.27;;;;;;;-143.84;37.29;44828.19;5073055;28;20476;-77
2022/07/03 07:58:58;;;;;;;3.20;2.70;;;;;;;-143.84;38.12;44776.78;5073165;28;20469;-77
2022/07/03 08:06:56;;;;;;;4.30;2.10;;;;;;;-143.84;39.04;44826.28;5073300;28;20465;-77
2022/07/03 08:09:23;;;;;;;5.63;2.33;;;;;;;-143.84;39.54;44833.91;5073165;28;20445;-77
2022/07/03 08:11:50;;;;;;;2.60;2.40;;;;;;;-143.84;38.26;44820.56;5073182;28;20436;-79
2022/07/03 08:14:17;;;;;;;2.20;2.00;;;;;;;-143.84;38.09;44826.28;5073498;28;20514;-78
2022/07/03 08:16:45;;;;;;;2.33;2.13;;;;;;;-143.84;37.74;44833.91;5072793;28;20429;-78
2022/07/03 08:19:14;;;;;;;2.50;2.30;;;;;;;-143.84;36.35;44830.09;5073972;28;20484;-78
2022/07/03 08:21:42;;;;;;;2.60;2.27;;;;;;;-143.84;38.92;44786.31;5072530;28;20479;-75
2022/07/03 08:24:10;;;;;;;8.10;2.80;;;;;;;-143.84;39.00;44837.72;5072013;28;20440;-75
2022/07/03 08:26:38;;;;;;;5.83;2.10;;;;;;;-143.84;39.25;44847.22;5063816;28;20966;-74
2022/07/03 08:29:05;;;;;;;2.90;2.70;;;;;;;-143.84;37.24;44854.84;5071724;28;20441;-73
2022/07/03 08:31:32;;;;;;;8.60;2.90;;;;;;;-143.84;37.78;44864.38;5071163;28;20441;-75
2022/07/03 08:33:59;;;;;;;4.87;2.10;;;;;;;-143.84;37.23;44809.16;5071304;28;20449;-75
2022/07/03 08:36:28;;;;;;;4.80;2.03;;;;;;;-143.84;37.64;44868.19;5071428;28;20437;-75
2022/07/03 08:38:56;;;;;;;2.57;2.10;;;;;;;-143.84;38.37;44780.59;5071883;28;20464;-74
2022/07/03 08:41:24;;;;;;;7.40;2.53;;;;;;;-143.84;38.36;44833.91;5071480;28;20475;-74
2022/07/03 08:43:52;;;;;;;3.33;2.67;;;;;;;-143.84;36.61;44818.66;5072013;28;20424;-74
2022/07/03 08:46:20;;;;;;;3.20;2.47;;;;;;;-143.84;38.12;44820.56;5071898;28;20848;-76
2022/07/03 08:48:50;;;;;;;5.50;2.10;;;;;;;-143.84;37.17;44843.44;5073533;28;20441;-80
2022/07/03 08:51:20;;;;;;;2.10;2.00;;;;;;;-143.84;34.29;44873.88;5070823;28;20498;-75
2022/07/03 08:53:49;;;;;;;10.63;2.13;;;;;;;-143.84;34.28;44833.91;5070202;28;20455;-75
2022/07/03 08:56:16;;;;;;;2.40;2.20;;;;;;;-143.84;36.30;44854.84;5070583;28;20954;-73
2022/07/03 08:58:44;;;;;;;1.97;1.80;;;;;;;-143.84;35.67;44858.66;5071128;28;20452;-76
2022/07/03 09:01:15;;;;;;;6.00;2.13;;;;;;;-143.84;35.96;44835.81;5071341;28;20550;-77
2022/07/03 09:03:44;;;;;;;3.10;2.00;;;;;;;-143.84;35.99;44845.31;5072211;28;20443;-77
2022/07/03 09:06:13;;;;;;;7.73;2.03;;;;;;;-143.84;36.08;44822.47;5071793;28;20965;-77
2022/07/03 09:08:41;;;;;;;2.33;2.13;;;;;;;-143.84;34.29;44860.56;5072465;28;20492;-76
2022/07/03 09:11:12;;;;;;;2.63;2.37;;;;;;;-143.84;34.85;44837.72;5071832;28;20510;-76
2022/07/03 09:13:39;;;;;;;2.80;2.17;;;;;;;-143.84;34.94;44824.38;5072741;28;20434;-76
2022/07/03 09:16:06;;;;;;;3.40;2.30;;;;;;;-143.84;34.85;44820.56;5071295;28;20453;-76
2022/07/03 09:18:43;;;;;;;2.53;2.20;;;;;;;-143.84;32.69;44812.97;5071532;28;20449;-76
2022/07/03 09:21:10;;;;;;;4.53;2.50;;;;;;;-143.84;32.39;44843.44;5071909;28;20545;-77
2022/07/03 09:23:38;;;;;;;3.10;2.40;;;;;;;-143.84;32.66;44803.44;5072398;28;20498;-74
2022/07/03 09:26:06;;;;;;;2.73;2.20;;;;;;;-143.84;33.43;44841.53;5063799;28;20485;-79
2022/07/03 09:28:45;;;;;;;5.13;2.20;;;;;;;-143.84;32.59;44826.28;5072657;28;20441;-75
2022/07/03 09:31:13;;;;;;;5.30;2.50;;;;;;;-143.84;30.06;44809.16;5072742;28;20464;-75
2022/07/03 09:33:52;;;;;;;3.40;2.00;;;;;;;-143.84;30.70;44835.81;5072801;28;20444;-75
2022/07/03 09:36:23;;;;;;;3.90;1.80;;;;;;;-143.84;31.21;44826.28;5072790;28;20437;-75
2022/07/03 09:38:50;;;;;;;2.50;2.07;;;;;;;-143.84;30.86;44797.72;5072878;28;20429;-75
2022/07/03 09:41:17;;;;;;;10.50;2.00;;;;;;;-143.84;31.46;44847.22;5072379;28;21031;-75
2022/07/03 09:43:46;;;;;;;1.87;1.77;;;;;;;-143.84;30.52;44816.78;5072302;28;20445;-80
2022/07/03 09:46:13;;;;;;;2.37;1.73;;;;;;;-143.84;31.00;44820.56;5072709;28;20445;-80
2022/07/03 09:48:42;;;;;;;4.70;2.27;;;;;;;-143.84;29.87;44849.13;5073498;28;20429;-80
2022/07/03 09:51:14;;;;;;;3.73;2.03;;;;;;;-143.84;31.46;44830.09;5072361;28;20531;-75
2022/07/03 09:53:50;;;;;;;3.23;2.07;;;;;;;-143.84;30.47;44784.41;5072092;28;20453;-75
2022/07/03 09:56:18;;;;;;;4.83;2.60;;;;;;;-143.84;30.74;44828.19;5072441;28;20444;-79
2022/07/03 09:59:15;;;;;;;3.47;1.90;;;;;;;-143.84;30.66;44862.47;5071877;28;20447;-76
2022/07/03 10:01:43;;;;;;;2.37;2.17;;;;;;;-143.84;30.64;44807.25;5070866;28;20445;-77
2022/07/03 10:04:13;;;;;;;6.40;2.20;;;;;;;-143.84;31.29;44845.31;5070893;28;20437;-77
2022/07/03 10:06:48;;;;;;;6.07;2.03;;;;;;;-143.84;30.86;44843.44;5072372;28;20449;-76
2022/07/03 10:09:17;;;;;;;3.53;2.10;;;;;;;-143.84;30.46;44826.28;5072671;28;20452;-76
2022/07/03 10:11:46;;;;;;;6.13;2.30;;;;;;;-143.84;31.05;44833.91;5072274;28;20931;-76
2022/07/03 10:14:16;;;;;;;4.30;1.87;;;;;;;-143.84;30.75;44835.81;5072212;28;20437;-76
2022/07/03 10:16:44;;;;;;;4.43;2.30;;;;;;;-143.84;31.98;44803.44;5072216;28;20445;-76
2022/07/03 10:19:15;;;;;;;3.93;2.17;;;;;;;-143.84;30.67;44832.00;5072309;28;20969;-76
2022/07/03 10:21:44;;;;;;;3.70;2.13;;;;;;;-143.84;32.19;44824.38;5073284;28;20435;-76
2022/07/03 10:24:13;;;;;;;4.53;1.87;;;;;;;-143.84;30.74;44818.66;5072612;28;20955;-76
2022/07/03 10:26:42;;;;;;;2.47;2.23;;;;;;;-143.84;31.73;44820.56;5072925;28;20476;-76
2022/07/03 10:29:15;;;;;;;4.93;2.67;;;;;;;-143.84;31.83;44856.75;5072069;28;20437;-76
2022/07/03 10:31:46;;;;;;;3.40;2.70;;;;;;;-143.84;30.43;44841.53;5071638;28;20433;-76
2022/07/03 10:34:17;;;;;;;8.93;1.73;;;;;;;-143.84;30.67;44835.81;5071356;28;20444;-76
2022/07/03 10:36:46;;;;;;;8.83;3.40;;;;;;;-143.84;30.11;44795.81;5071939;28;20810;-79
2022/07/03 10:39:22;;;;;;;2.30;2.10;;;;;;;-143.84;30.20;44811.06;5072072;28;20681;-75
2022/07/03 10:44:54;;;;;;;6.30;2.00;;;;;;;-143.84;30.01;44822.47;5071621;28;20810;-76
2022/07/03 10:47:45;;;;;;;8.17;2.33;;;;;;;-143.84;31.38;44839.63;5071889;28;20513;-75
2022/07/03 10:50:14;;;;;;;5.50;2.20;;;;;;;-143.84;28.93;44803.44;5062893;28;20453;-75
2022/07/03 10:52:42;;;;;;;8.60;2.40;;;;;;;-143.84;28.80;44841.53;5071509;28;20465;-75
2022/07/03 10:55:10;;;;;;;2.83;2.10;;;;;;;-143.84;28.39;44826.28;5071827;28;20429;-76
2022/07/03 10:57:38;;;;;;;4.40;2.27;;;;;;;-143.84;27.73;44830.09;5069996;28;20436;-77
2022/07/03 11:00:16;;;;;;;6.87;2.03;;;;;;;-143.84;28.88;44832.00;5071651;28;20522;-76
2022/07/03 11:02:50;;;;;;;2.20;2.00;;;;;;;-143.84;28.01;44792.00;5071772;28;20437;-76
2022/07/03 11:05:25;;;;;;;3.60;2.00;;;;;;;-143.84;27.43;44822.47;5072108;28;20433;-79
2022/07/03 11:08:19;;;;;;;4.77;2.43;;;;;;;-143.84;29.30;44856.75;5071798;28;20475;-76
2022/07/03 11:11:54;;;;;;;9.53;2.30;;;;;;;-143.84;29.58;44805.34;5070715;28;20803;-75
2022/07/03 11:13:34;;;;;;;2.20;2.00;;;;;;;-143.84;29.03;44847.22;5071372;28;20543;-76
2022/07/03 11:16:01;;;;;;;4.63;3.00;;;;;;;-143.84;29.92;44839.63;5076994;28;20443;-76
2022/07/03 11:18:31;;;;;;;4.70;2.20;;;;;;;-143.84;30.39;44854.84;5056992;28;20441;-76
2022/07/03 11:21:23;;;;;;;3.10;2.43;;;;;;;-143.84;31.08;44843.44;5050898;28;20987;-76
2022/07/03 11:24:29;;;;;;;6.40;2.10;;;;;;;-143.84;31.75;44835.81;5051134;28;20434;-76
2022/07/03 11:27:26;;;;;;;4.90;2.70;;;;;;;-143.84;30.55;44845.31;5018123;28;20816;-76
2022/07/03 11:30:00;;;;;;;6.40;2.50;;;;;;;-143.84;28.65;44851.03;5051459;28;20449;-76
2022/07/03 11:32:59;;;;;;;10.20;3.13;;;;;;;-143.84;31.73;44832.00;5049403;28;20444;-76
2022/07/03 11:35:48;;;;;;;9.13;2.43;;;;;;;-143.84;31.58;44875.78;5048303;28;20453;-75
2022/07/03 11:38:16;;;;;;;4.77;2.00;;;;;;;-143.84;30.66;44849.13;5049581;28;20995;-76
2022/07/03 11:40:46;;;;;;;3.93;1.90;;;;;;;-143.84;28.31;44849.13;5050726;28;20477;-76
2022/07/03 11:43:13;;;;;;;5.43;2.30;;;;;;;-143.84;31.24;44871.97;5051163;28;20473;-76